Time;durP1;ratioP1;P1;durP2;ratioP2;P2;SDS_P1;SDS_P2;PMS_P1;PMS_P2;Temp;Humidity;BMP_temperature;BMP_pressure;BME280_temperature;BME280_humidity;BME280_pressure;Samples;Min_cycle;Max_cycle;Signal;HPM_P1;HPM_P2
2023/04/19 00:00:13;;;;;;;2.78;1.92;;;;;;;11.59;59.59;94508.75;5007574;28;20210;-70
2023/04/19 00:02:40;;;;;;;1.73;1.63;;;;;;;11.68;59.06;94505.94;5010716;28;20218;-71
2023/04/19 00:05:06;;;;;;;1.87;1.77;;;;;;;11.67;59.41;94503.47;5007052;28;20219;-71
2023/04/19 00:07:32;;;;;;;2.00;1.37;;;;;;;11.58;59.53;94507.94;5006655;28;20306;-71
2023/04/19 00:09:57;;;;;;;2.23;1.80;;;;;;;11.56;59.65;94501.19;5008792;28;20309;-70
2023/04/19 00:12:23;;;;;;;2.37;1.70;;;;;;;11.54;59.72;94508.44;5008716;28;20187;-70
2023/04/19 00:14:48;;;;;;;2.90;1.70;;;;;;;11.55;59.56;94503.03;5012390;28;20559;-70
2023/04/19 00:17:14;;;;;;;1.80;1.70;;;;;;;11.63;59.37;94499.53;5007656;28;20278;-70
2023/04/19 00:19:40;;;;;;;1.90;1.70;;;;;;;11.62;59.50;94501.31;5007416;28;20231;-71
2023/04/19 00:22:05;;;;;;;1.70;1.57;;;;;;;11.66;59.21;94496.56;5006421;28;20235;-71
2023/04/19 00:24:31;;;;;;;1.47;1.37;;;;;;;11.66;59.33;94501.81;5006258;28;20212;-70
2023/04/19 00:26:58;;;;;;;2.83;1.53;;;;;;;11.61;59.56;94490.97;5007973;28;20229;-71
2023/04/19 00:29:23;;;;;;;1.77;1.67;;;;;;;11.63;59.66;94495.09;5010911;28;20226;-70
2023/04/19 00:31:49;;;;;;;1.70;1.60;;;;;;;11.58;59.89;94499.22;5004886;28;20227;-70
2023/04/19 00:34:14;;;;;;;2.33;1.50;;;;;;;11.69;59.21;94490.94;5004437;28;20796;-70
2023/04/19 00:36:40;;;;;;;2.37;1.67;;;;;;;11.51;59.62;94490.34;5003434;28;20534;-70
2023/04/19 00:39:05;;;;;;;3.23;1.70;;;;;;;11.46;60.22;94486.41;5006477;28;20662;-70
2023/04/19 00:41:31;;;;;;;2.60;2.15;;;;;;;11.58;59.96;94486.88;5000503;28;20234;-70
2023/04/19 00:43:56;;;;;;;2.97;1.93;;;;;;;11.68;59.55;94486.66;5006095;28;20274;-70
2023/04/19 00:46:22;;;;;;;2.13;1.93;;;;;;;11.63;59.75;94481.91;5007559;28;20231;-70
2023/04/19 00:48:49;;;;;;;3.80;2.30;;;;;;;11.52;59.77;94490.19;5010417;28;20183;-69
2023/04/19 00:51:15;;;;;;;2.03;1.83;;;;;;;11.58;59.40;94483.44;5010168;28;20195;-70
2023/04/19 00:53:42;;;;;;;2.70;2.10;;;;;;;11.44;59.88;94483.16;5010261;28;20349;-70
2023/04/19 00:56:09;;;;;;;1.77;1.67;;;;;;;11.48;59.83;94475.72;5010734;28;20238;-69
2023/04/19 00:58:38;;;;;;;1.87;1.77;;;;;;;11.55;59.31;94481.97;5010034;28;20227;-69
2023/04/19 01:01:05;;;;;;;1.60;1.50;;;;;;;11.56;59.33;94478.31;5006674;28;20271;-70
2023/04/19 01:03:30;;;;;;;2.17;1.97;;;;;;;11.48;59.69;94466.00;5007860;28;20187;-70
2023/04/19 01:05:56;;;;;;;3.38;1.80;;;;;;;11.64;59.33;94473.03;5007911;28;20577;-70
2023/04/19 01:08:22;;;;;;;2.53;1.92;;;;;;;11.71;58.88;94478.44;5015082;28;20223;-70
2023/04/19 01:10:47;;;;;;;2.45;1.80;;;;;;;11.72;58.92;94468.72;5007073;28;20223;-71
2023/04/19 01:13:13;;;;;;;2.20;2.00;;;;;;;11.68;58.89;94466.44;5008338;28;20237;-70
2023/04/19 01:15:38;;;;;;;2.23;1.80;;;;;;;11.63;58.89;94467.94;5009884;28;20215;-71
2023/04/19 01:18:04;;;;;;;3.03;1.52;;;;;;;11.65;59.43;94471.19;5002218;28;20746;-70
2023/04/19 01:20:29;;;;;;;2.20;1.90;;;;;;;11.71;59.31;94470.53;5008395;28;20229;-70
2023/04/19 01:22:55;;;;;;;4.30;1.60;;;;;;;11.60;59.65;94469.09;5007771;28;20261;-70
2023/04/19 01:25:20;;;;;;;3.83;1.90;;;;;;;11.66;59.42;94478.94;5007041;28;20310;-70
2023/04/19 01:27:45;;;;;;;3.28;2.00;;;;;;;11.62;59.29;94468.91;5003458;28;20179;-70
2023/04/19 01:30:11;;;;;;;2.20;1.58;;;;;;;11.65;59.17;94473.84;5009738;28;20174;-70
2023/04/19 01:32:37;;;;;;;2.17;1.60;;;;;;;11.63;58.96;94471.38;4999667;28;20219;-71
2023/04/19 01:35:03;;;;;;;1.93;1.30;;;;;;;11.67;58.96;94477.13;5006524;28;20239;-70
2023/04/19 01:37:28;;;;;;;2.23;1.50;;;;;;;11.45;59.70;94466.34;5014423;28;20226;-70
2023/04/19 01:39:54;;;;;;;2.27;1.50;;;;;;;11.52;59.42;94469.13;5013060;28;20245;-70
2023/04/19 01:42:19;;;;;;;2.03;1.40;;;;;;;11.62;58.98;94464.47;5009342;28;20226;-70
2023/04/19 01:44:45;;;;;;;2.28;1.83;;;;;;;11.61;59.13;94459.38;5008219;28;20239;-70
2023/04/19 01:47:10;;;;;;;3.83;1.80;;;;;;;11.50;59.59;94462.41;5021025;28;20223;-70
2023/04/19 01:49:36;;;;;;;2.17;1.98;;;;;;;11.50;59.70;94459.78;5007637;28;20273;-69
2023/04/19 01:52:01;;;;;;;2.47;1.98;;;;;;;11.52;59.77;94469.13;5005673;28;20253;-70
2023/04/19 01:54:27;;;;;;;3.70;1.70;;;;;;;11.55;59.63;94455.63;5006492;28;20238;-70
2023/04/19 01:56:52;;;;;;;2.08;1.88;;;;;;;11.36;60.24;94451.59;5006604;28;20373;-70
2023/04/19 01:59:17;;;;;;;3.20;2.07;;;;;;;11.41;60.00;94459.81;5009374;28;20230;-70
2023/04/19 02:01:43;;;;;;;2.10;1.90;;;;;;;11.40;60.42;94458.13;5008638;28;20614;-70
2023/04/19 02:04:08;;;;;;;2.15;1.95;;;;;;;11.23;60.89;94457.38;5009281;28;20806;-70
2023/04/19 02:06:34;;;;;;;2.50;2.03;;;;;;;11.43;60.70;94463.06;5006138;28;20192;-70
2023/04/19 02:08:59;;;;;;;3.45;1.80;;;;;;;11.29;60.99;94455.88;5007754;28;20190;-70
2023/04/19 02:11:25;;;;;;;2.30;2.03;;;;;;;11.12;61.42;94465.66;5007658;28;20223;-71
2023/04/19 02:13:50;;;;;;;2.30;2.10;;;;;;;11.15;61.29;94456.59;5005008;28;20219;-71
2023/04/19 02:16:16;;;;;;;2.30;2.10;;;;;;;11.25;60.92;94454.56;5009832;28;20317;-71
2023/04/19 02:18:41;;;;;;;2.23;2.13;;;;;;;11.11;61.38;94455.28;5007963;28;20207;-71
2023/04/19 02:21:08;;;;;;;2.47;2.27;;;;;;;11.02;61.72;94457.13;5007425;28;20191;-72
2023/04/19 02:23:34;;;;;;;2.30;2.10;;;;;;;10.98;62.04;94450.53;5007141;28;20238;-70
2023/04/19 02:26:03;;;;;;;2.80;2.53;;;;;;;10.90;62.05;94455.81;5007496;28;20227;-70
2023/04/19 02:28:31;;;;;;;2.30;2.10;;;;;;;10.76;62.60;94449.44;5007891;28;20231;-69
2023/04/19 02:30:57;;;;;;;4.03;2.37;;;;;;;10.66;63.16;94441.72;5002949;28;20718;-69
2023/04/19 02:33:24;;;;;;;2.80;2.43;;;;;;;10.47;63.91;94440.25;5007134;28;20191;-69
2023/04/19 02:35:49;;;;;;;2.60;2.40;;;;;;;10.48;63.97;94448.97;5014638;28;21050;-70
2023/04/19 02:38:15;;;;;;;2.90;2.60;;;;;;;10.60;63.50;94452.91;5003586;28;20219;-69
2023/04/19 02:40:40;;;;;;;2.53;2.33;;;;;;;10.74;63.08;94448.78;5011950;28;20617;-71
2023/04/19 02:43:06;;;;;;;3.10;2.30;;;;;;;10.85;62.48;94448.41;5012015;28;20284;-70
2023/04/19 02:45:31;;;;;;;2.83;2.63;;;;;;;10.68;62.91;94452.06;5006868;28;20183;-70
2023/04/19 02:47:58;;;;;;;3.30;2.40;;;;;;;10.84;62.51;94452.03;5011585;28;20223;-70
2023/04/19 02:50:24;;;;;;;3.40;2.60;;;;;;;10.80;62.73;94453.38;5012538;28;20227;-71
2023/04/19 02:52:50;;;;;;;2.53;2.33;;;;;;;10.88;62.55;94452.53;5011553;28;20226;-70
2023/04/19 02:55:15;;;;;;;2.57;2.37;;;;;;;10.82;62.70;94451.38;5012861;28;20270;-70
2023/04/19 02:57:41;;;;;;;2.90;2.70;;;;;;;10.88;62.35;94449.88;5009640;28;20190;-70
2023/04/19 03:00:07;;;;;;;3.43;2.73;;;;;;;10.86;62.28;94449.25;5012924;28;20206;-71
2023/04/19 03:02:33;;;;;;;2.70;2.50;;;;;;;11.00;61.85;94452.00;5008715;28;20572;-71
2023/04/19 03:04:58;;;;;;;2.63;2.43;;;;;;;10.91;62.22;94453.03;5006312;28;20222;-71
2023/04/19 03:07:24;;;;;;;3.03;2.77;;;;;;;10.85;62.19;94456.31;5010533;28;20279;-71
2023/04/19 03:09:50;;;;;;;3.43;3.13;;;;;;;10.65;62.63;94452.41;5013987;28;20179;-72
2023/04/19 03:12:15;;;;;;;3.17;2.97;;;;;;;10.71;62.49;94449.91;5015561;28;20178;-72
2023/04/19 03:14:41;;;;;;;3.10;2.90;;;;;;;10.59;62.91;94446.81;5011027;28;20227;-71
2023/04/19 03:17:06;;;;;;;3.63;3.33;;;;;;;10.32;63.72;94450.63;5009729;28;20883;-71
2023/04/19 03:19:32;;;;;;;3.50;3.20;;;;;;;10.33;63.68;94448.81;5008077;28;20228;-71
2023/04/19 03:21:57;;;;;;;3.67;3.27;;;;;;;10.39;63.58;94450.75;5011677;28;20237;-71
2023/04/19 03:24:28;;;;;;;3.40;3.10;;;;;;;10.56;63.01;94454.22;5007786;28;20203;-71
2023/04/19 03:26:54;;;;;;;3.80;3.40;;;;;;;10.51;63.33;94449.47;5012812;28;20226;-71
2023/04/19 03:29:19;;;;;;;3.87;3.57;;;;;;;10.52;63.12;94448.47;5027203;28;21970;-70
2023/04/19 03:31:45;;;;;;;3.57;3.27;;;;;;;10.47;63.03;94440.25;5006103;28;20340;-69
2023/04/19 03:34:10;;;;;;;3.77;3.47;;;;;;;10.58;62.69;94444.34;5011760;28;20227;-71
2023/04/19 03:36:35;;;;;;;4.67;3.67;;;;;;;10.51;62.95;94446.03;5010930;28;20182;-70
2023/04/19 03:39:02;;;;;;;4.00;3.10;;;;;;;10.51;62.74;94444.19;5005720;28;20662;-70
2023/04/19 03:41:28;;;;;;;3.30;3.03;;;;;;;10.62;62.65;94445.69;5004562;28;20231;-70
2023/04/19 03:43:53;;;;;;;5.00;3.70;;;;;;;10.42;63.03;94442.53;5007106;28;20230;-70
2023/04/19 03:46:19;;;;;;;3.97;3.67;;;;;;;10.47;62.61;94442.88;5008728;28;20234;-70
2023/04/19 03:48:44;;;;;;;3.77;3.40;;;;;;;10.56;62.42;94446.34;5007358;28;20194;-70
2023/04/19 03:51:10;;;;;;;4.17;3.73;;;;;;;10.35;63.07;94439.78;5011055;28;20282;-70
2023/04/19 03:53:35;;;;;;;3.57;3.27;;;;;;;10.52;62.62;94447.66;5015324;28;20238;-71
2023/04/19 03:56:01;;;;;;;4.07;3.77;;;;;;;10.46;62.68;94435.19;5007219;28;20322;-71
2023/04/19 03:58:26;;;;;;;3.57;3.27;;;;;;;10.42;63.02;94439.91;5009487;28;20226;-71
2023/04/19 04:00:52;;;;;;;3.43;3.13;;;;;;;10.57;62.45;94433.03;5005100;28;20243;-71
2023/04/19 04:03:18;;;;;;;3.63;3.33;;;;;;;10.58;62.69;94441.72;5007931;28;20186;-70
2023/04/19 04:05:43;;;;;;;3.73;3.20;;;;;;;10.53;62.49;94436.97;5010091;28;20226;-70
2023/04/19 04:08:09;;;;;;;3.87;3.57;;;;;;;10.26;63.58;94442.53;5009222;28;20223;-70
2023/04/19 04:10:34;;;;;;;3.47;3.17;;;;;;;10.36;63.02;94440.59;5008623;28;20230;-70
2023/04/19 04:13:00;;;;;;;3.77;3.47;;;;;;;10.34;63.01;94442.56;5005942;28;20226;-70
2023/04/19 04:15:25;;;;;;;3.40;3.10;;;;;;;10.41;62.96;94443.53;5006368;28;20613;-71
2023/04/19 04:17:51;;;;;;;3.97;3.67;;;;;;;10.56;62.51;94449.78;5007692;28;20711;-71
2023/04/19 04:20:16;;;;;;;3.13;2.93;;;;;;;10.65;62.41;94452.41;5010138;28;20219;-70
2023/04/19 04:22:42;;;;;;;3.67;3.37;;;;;;;10.59;62.34;94452.09;5010342;28;20552;-70
2023/04/19 04:25:09;;;;;;;3.73;3.43;;;;;;;10.61;62.28;94459.78;5010752;28;20639;-70
2023/04/19 04:27:34;;;;;;;4.53;3.50;;;;;;;10.66;61.43;94454.03;5008555;28;20203;-70
2023/04/19 04:30:00;;;;;;;4.87;3.27;;;;;;;10.54;62.39;94459.63;5001842;28;20296;-70
2023/04/19 04:32:26;;;;;;;3.37;3.17;;;;;;;10.55;61.88;94452.56;5007416;28;20246;-68
2023/04/19 04:34:52;;;;;;;3.30;3.10;;;;;;;10.39;62.59;94456.03;5005233;28;20223;-68
2023/04/19 04:37:17;;;;;;;3.50;3.17;;;;;;;10.44;62.37;94453.72;5004255;28;20333;-69
2023/04/19 04:39:42;;;;;;;3.80;3.50;;;;;;;10.58;62.27;94460.97;5008201;28;20209;-68
2023/04/19 04:42:08;;;;;;;4.03;3.50;;;;;;;10.70;61.82;94460.63;5005427;28;20195;-68
2023/04/19 04:44:41;;;;;;;5.30;3.50;;;;;;;10.53;62.30;94465.91;5007372;28;20223;-69
2023/04/19 04:47:06;;;;;;;5.13;3.73;;;;;;;10.49;62.67;94467.19;5007616;28;20227;-71
2023/04/19 04:49:31;;;;;;;3.80;3.50;;;;;;;10.42;62.81;94466.19;5006766;28;20777;-70
2023/04/19 04:51:57;;;;;;;4.13;3.83;;;;;;;10.51;62.57;94470.50;5008123;28;20265;-69
2023/04/19 04:54:23;;;;;;;5.60;3.97;;;;;;;10.51;62.38;94470.50;5009475;28;20261;-69
2023/04/19 04:56:48;;;;;;;4.03;3.57;;;;;;;10.62;62.28;94463.25;5006917;28;20560;-69
2023/04/19 04:59:14;;;;;;;4.73;4.20;;;;;;;10.55;62.32;94465.72;5022212;28;20238;-69
2023/04/19 05:01:39;;;;;;;4.40;4.10;;;;;;;10.48;62.44;94470.81;5008067;28;20234;-69
2023/04/19 05:04:05;;;;;;;4.60;4.00;;;;;;;10.52;62.41;94466.03;5003306;28;20233;-69
2023/04/19 05:06:30;;;;;;;4.27;3.87;;;;;;;10.13;63.67;94466.63;4999486;28;20217;-68
2023/04/19 05:08:56;;;;;;;4.43;3.70;;;;;;;10.35;62.81;94473.13;5008050;28;20218;-69
2023/04/19 05:11:21;;;;;;;4.37;3.97;;;;;;;10.38;62.94;94475.41;5004067;28;20231;-69
2023/04/19 05:13:47;;;;;;;4.80;4.40;;;;;;;10.46;62.68;94472.78;5009877;28;20230;-68
2023/04/19 05:16:12;;;;;;;4.33;3.93;;;;;;;10.38;63.07;94478.03;5006607;28;20710;-67
2023/04/19 05:18:38;;;;;;;5.80;4.30;;;;;;;10.34;62.96;94479.34;5002557;28;20207;-70
2023/04/19 05:21:03;;;;;;;4.40;4.00;;;;;;;10.49;62.91;94482.97;5012592;28;20306;-67
2023/04/19 05:23:29;;;;;;;5.43;4.20;;;;;;;10.51;62.84;94474.94;5007014;28;20234;-69
2023/04/19 05:25:54;;;;;;;5.17;4.67;;;;;;;10.41;63.38;94469.00;5004655;28;20231;-69
2023/04/19 05:28:20;;;;;;;4.53;4.23;;;;;;;10.56;62.78;94473.44;5006894;28;20218;-69
2023/04/19 05:30:45;;;;;;;5.40;4.90;;;;;;;10.67;62.45;94474.09;5008230;28;20194;-68
2023/04/19 05:33:11;;;;;;;5.43;4.10;;;;;;;10.72;62.17;94477.88;5008358;28;20187;-69
2023/04/19 05:35:36;;;;;;;7.30;4.63;;;;;;;10.56;62.84;94476.06;5005225;28;20231;-68
2023/04/19 05:38:02;;;;;;;5.97;4.43;;;;;;;10.78;62.27;94479.03;5008009;28;20697;-68
2023/04/19 05:40:28;;;;;;;6.55;4.68;;;;;;;10.77;61.94;94478.22;4999427;28;20231;-68
2023/04/19 05:42:54;;;;;;;5.50;4.20;;;;;;;10.85;61.72;94481.78;5006170;28;20253;-68
2023/04/19 05:45:20;;;;;;;5.87;3.97;;;;;;;10.84;61.73;94482.78;5009296;28;20183;-68
2023/04/19 05:47:46;;;;;;;4.87;4.40;;;;;;;11.06;60.93;94476.00;5002646;28;20223;-69
2023/04/19 05:50:13;;;;;;;4.77;4.37;;;;;;;10.91;61.37;94476.69;5010139;28;20771;-65
2023/04/19 05:52:39;;;;;;;5.17;4.40;;;;;;;10.95;61.47;94477.19;5006822;28;20310;-68
2023/04/19 05:55:05;;;;;;;4.72;4.30;;;;;;;10.90;61.84;94480.31;5005940;28;20301;-68
2023/04/19 05:57:31;;;;;;;4.80;4.40;;;;;;;10.92;61.52;94482.78;5004148;28;20639;-68
2023/04/19 05:59:56;;;;;;;4.70;4.30;;;;;;;11.00;61.52;94486.22;5006319;28;20306;-69
2023/04/19 06:02:22;;;;;;;5.03;4.63;;;;;;;10.84;62.04;94485.44;5006805;28;20317;-68
2023/04/19 06:04:48;;;;;;;5.13;4.63;;;;;;;10.99;61.60;94495.09;5013366;28;20225;-64
2023/04/19 06:07:13;;;;;;;5.57;4.43;;;;;;;11.09;60.59;94488.81;5001542;28;20222;-62
2023/04/19 06:09:39;;;;;;;4.40;4.00;;;;;;;11.00;61.14;94485.41;5009069;28;20190;-62
2023/04/19 06:12:04;;;;;;;5.57;5.03;;;;;;;11.02;60.82;94478.16;5009486;28;20194;-66
2023/04/19 06:14:30;;;;;;;5.00;4.57;;;;;;;11.21;60.82;94480.41;5015054;28;20300;-66
2023/04/19 06:16:55;;;;;;;4.50;4.13;;;;;;;11.17;60.91;94483.53;5008731;28;20226;-67
2023/04/19 06:19:21;;;;;;;6.63;4.43;;;;;;;11.14;61.49;94489.16;5012061;28;20241;-67
2023/04/19 06:21:46;;;;;;;4.87;4.47;;;;;;;11.10;61.50;94486.03;5017402;28;20221;-67
2023/04/19 06:24:12;;;;;;;5.47;4.60;;;;;;;11.25;61.48;94489.63;5012479;28;20187;-66
2023/04/19 06:26:37;;;;;;;5.07;4.57;;;;;;;11.32;61.27;94488.94;5014316;28;20222;-71
2023/04/19 06:29:03;;;;;;;5.68;5.18;;;;;;;11.43;60.71;94485.94;5010365;28;20579;-69
2023/04/19 06:31:29;;;;;;;4.72;4.32;;;;;;;11.40;60.96;94484.47;5024689;28;20215;-69
2023/04/19 06:33:54;;;;;;;5.07;4.57;;;;;;;11.57;59.97;94476.50;4998340;28;20940;-69
2023/04/19 06:36:20;;;;;;;5.60;4.87;;;;;;;11.67;59.53;94487.66;5009323;28;20187;-69
2023/04/19 06:38:45;;;;;;;4.57;4.10;;;;;;;11.67;59.69;94485.03;5012668;28;20223;-69
2023/04/19 06:41:11;;;;;;;4.63;4.22;;;;;;;11.51;60.19;94504.34;5011194;28;20217;-67
2023/04/19 06:43:38;;;;;;;5.07;4.57;;;;;;;11.53;60.25;94491.84;5012668;28;20288;-64
2023/04/19 06:46:04;;;;;;;4.72;4.32;;;;;;;11.76;59.27;94494.53;5009371;28;20715;-65
2023/04/19 06:48:29;;;;;;;4.83;4.33;;;;;;;11.42;60.25;94495.66;5013692;28;20805;-66
2023/04/19 06:50:55;;;;;;;4.03;3.73;;;;;;;11.65;59.79;94494.91;5009069;28;20233;-70
2023/04/19 06:53:21;;;;;;;4.13;3.70;;;;;;;11.83;59.34;94498.13;5008513;28;20242;-62
2023/04/19 06:55:46;;;;;;;4.18;3.78;;;;;;;11.99;58.15;94499.06;5007494;28;20266;-62
2023/04/19 06:58:12;;;;;;;4.43;4.03;;;;;;;12.10;58.15;94496.03;5012136;28;20770;-65
2023/04/19 07:00:37;;;;;;;6.35;4.63;;;;;;;12.26;58.07;94492.47;5006273;28;20219;-68
2023/04/19 07:03:03;;;;;;;4.70;4.22;;;;;;;12.28;58.36;94499.22;5008752;28;20210;-68
2023/04/19 07:05:30;;;;;;;3.90;3.60;;;;;;;12.33;57.54;94494.25;5001771;28;20246;-68
2023/04/19 07:07:55;;;;;;;3.97;3.63;;;;;;;12.70;56.69;94502.41;5009106;28;20235;-65
2023/04/19 07:10:21;;;;;;;3.65;3.35;;;;;;;12.57;56.70;94497.72;5012694;28;20223;-70
2023/04/19 07:12:46;;;;;;;4.28;3.78;;;;;;;12.65;56.19;94500.28;5005869;28;20230;-68
2023/04/19 07:15:12;;;;;;;3.88;3.58;;;;;;;12.69;56.01;94506.81;5006492;28;21002;-69
2023/04/19 07:17:37;;;;;;;4.45;4.05;;;;;;;12.95;55.38;94503.81;5009167;28;20222;-68
2023/04/19 07:20:05;;;;;;;7.03;4.28;;;;;;;12.78;56.20;94508.41;5009209;28;20230;-67
2023/04/19 07:22:31;;;;;;;3.78;3.47;;;;;;;13.01;55.23;94502.28;5012005;28;20269;-67
2023/04/19 07:24:57;;;;;;;5.03;3.75;;;;;;;12.86;55.40;94502.25;5004647;28;20223;-72
2023/04/19 07:27:23;;;;;;;3.88;3.58;;;;;;;12.63;56.11;94510.19;5010481;28;20191;-71
2023/04/19 07:29:48;;;;;;;4.20;3.80;;;;;;;12.65;55.37;94499.47;5008853;28;20234;-68
2023/04/19 07:32:14;;;;;;;4.45;3.95;;;;;;;12.56;56.32;94514.50;5008188;28;20265;-68
2023/04/19 07:34:40;;;;;;;4.28;3.58;;;;;;;12.73;55.70;94515.22;5008503;28;20229;-68
2023/04/19 07:37:06;;;;;;;3.95;3.65;;;;;;;12.80;55.29;94505.59;5005675;28;20219;-69
2023/04/19 07:39:32;;;;;;;4.00;3.60;;;;;;;12.69;55.74;94504.19;5006840;28;20218;-69
2023/04/19 07:41:57;;;;;;;4.30;3.90;;;;;;;12.83;55.14;94510.53;5009240;28;20317;-68
2023/04/19 07:44:23;;;;;;;7.75;7.05;;;;;;;12.57;55.81;94501.16;5006215;28;20247;-67
2023/04/19 07:46:48;;;;;;;3.65;3.35;;;;;;;12.77;55.18;94511.22;4996744;28;20224;-67
2023/04/19 07:49:14;;;;;;;3.30;3.00;;;;;;;12.60;55.35;94509.72;4995658;28;20231;-65
2023/04/19 07:51:40;;;;;;;3.97;3.60;;;;;;;12.54;56.13;94505.97;5006831;28;20202;-66
2023/04/19 07:54:05;;;;;;;5.53;3.90;;;;;;;12.63;55.74;94504.09;4986758;28;20243;-68
2023/04/19 07:56:32;;;;;;;5.15;3.30;;;;;;;12.94;54.94;94501.38;4989058;28;20231;-66
2023/04/19 07:58:58;;;;;;;3.70;3.40;;;;;;;12.89;55.27;94512.44;4987815;28;20219;-67
2023/04/19 08:01:24;;;;;;;3.93;3.27;;;;;;;12.80;55.42;94511.72;4984504;28;20228;-69
2023/04/19 08:03:49;;;;;;;4.17;3.80;;;;;;;12.69;55.75;94511.28;5004664;28;20203;-64
2023/04/19 08:06:16;;;;;;;4.73;3.63;;;;;;;12.69;55.57;94514.75;4990696;28;20559;-64
2023/04/19 08:08:42;;;;;;;4.30;3.53;;;;;;;12.75;55.53;94508.78;4983809;28;20274;-66
2023/04/19 08:11:07;;;;;;;4.45;3.60;;;;;;;12.83;55.29;94505.25;4987402;28;20652;-66
2023/04/19 08:13:33;;;;;;;3.27;2.90;;;;;;;12.96;55.22;94501.97;4986758;28;20231;-65
2023/04/19 08:15:58;;;;;;;3.85;3.40;;;;;;;12.97;54.97;94506.28;4988906;28;20233;-66
2023/04/19 08:18:24;;;;;;;4.68;4.10;;;;;;;13.16;54.31;94507.59;4987696;28;20726;-67
2023/04/19 08:20:49;;;;;;;5.13;3.90;;;;;;;13.21;54.54;94513.97;4988353;28;20484;-68
2023/04/19 08:23:16;;;;;;;3.53;3.08;;;;;;;13.12;54.17;94511.56;4987274;28;20230;-64
2023/04/19 08:25:41;;;;;;;4.80;4.15;;;;;;;13.22;53.91;94506.84;4991172;28;20591;-66
2023/04/19 08:28:06;;;;;;;4.68;3.58;;;;;;;13.25;54.05;94504.66;4985187;28;20223;-66
2023/04/19 08:30:32;;;;;;;3.70;3.40;;;;;;;13.29;53.75;94507.00;4990055;28;20634;-63
2023/04/19 08:32:57;;;;;;;3.63;3.33;;;;;;;13.01;54.73;94491.72;4988268;28;20215;-65
2023/04/19 08:35:24;;;;;;;3.80;3.08;;;;;;;13.39;53.87;94499.63;4988801;28;20224;-65
2023/04/19 08:37:50;;;;;;;6.03;3.90;;;;;;;13.48;53.45;94493.25;4986617;28;20239;-63
2023/04/19 08:40:15;;;;;;;4.07;3.65;;;;;;;13.57;53.37;94496.63;4990951;28;20326;-64
2023/04/19 08:42:42;;;;;;;6.32;3.60;;;;;;;13.52;53.54;94504.25;4986091;28;20323;-65
2023/04/19 08:45:10;;;;;;;3.78;3.42;;;;;;;13.45;53.81;94501.53;4989921;28;20183;-68
2023/04/19 08:47:36;;;;;;;5.85;3.45;;;;;;;13.72;52.57;94494.78;4986436;28;20251;-68
2023/04/19 08:50:04;;;;;;;3.95;3.65;;;;;;;13.84;52.41;94492.50;4982161;28;20239;-68
2023/04/19 08:52:33;;;;;;;6.65;4.35;;;;;;;13.48;53.47;94487.16;4986206;28;20227;-69
2023/04/19 08:55:04;;;;;;;6.30;3.78;;;;;;;13.77;53.02;94491.59;4988155;28;20226;-69
2023/04/19 08:57:31;;;;;;;4.80;3.63;;;;;;;14.03;52.15;94481.34;5008982;28;20191;-70
2023/04/19 08:59:58;;;;;;;4.80;3.65;;;;;;;14.27;51.34;94482.84;4983860;28;20220;-66
2023/04/19 09:02:23;;;;;;;3.90;3.50;;;;;;;14.34;51.04;94491.63;4971627;28;20220;-69
2023/04/19 09:04:49;;;;;;;3.35;3.05;;;;;;;14.24;50.22;94477.09;4986817;28;20923;-71
2023/04/19 09:07:25;;;;;;;3.38;3.08;;;;;;;14.06;50.74;94491.56;4990553;28;20231;-71
2023/04/19 09:10:11;;;;;;;3.95;3.63;;;;;;;13.97;51.21;94476.78;4993558;28;20572;-71
2023/04/19 09:12:38;;;;;;;3.92;2.88;;;;;;;14.12;50.16;94485.50;4985991;28;20187;-70
2023/04/19 09:15:07;;;;;;;3.53;2.65;;;;;;;13.88;50.68;94489.31;4994866;28;20200;-70
2023/04/19 09:17:33;;;;;;;2.95;2.45;;;;;;;13.91;50.83;94480.19;4990143;28;20584;-71
2023/04/19 09:19:59;;;;;;;3.28;2.97;;;;;;;13.98;50.60;94480.25;4988860;28;20224;-69
2023/04/19 09:22:25;;;;;;;3.13;2.83;;;;;;;14.11;49.66;94477.75;4991977;28;20229;-72
2023/04/19 09:24:51;;;;;;;2.90;2.58;;;;;;;14.04;50.03;94474.25;5008277;28;20205;-73
2023/04/19 09:27:31;;;;;;;2.70;2.45;;;;;;;13.94;49.85;94460.50;4990241;28;20615;-74
2023/04/19 09:29:59;;;;;;;2.60;2.40;;;;;;;13.91;50.47;94472.25;4984660;28;20242;-74
2023/04/19 09:32:25;;;;;;;3.97;2.55;;;;;;;13.95;50.76;94460.28;5004858;28;20301;-72
2023/04/19 09:34:59;;;;;;;4.13;3.60;;;;;;;13.87;50.89;94471.81;5009822;28;20227;-68
2023/04/19 09:37:25;;;;;;;2.70;2.50;;;;;;;14.10;49.93;94469.00;5027787;28;20226;-70
2023/04/19 09:39:52;;;;;;;2.40;2.22;;;;;;;14.43;49.10;94471.16;5003332;28;20261;-69
2023/04/19 09:42:19;;;;;;;2.60;2.33;;;;;;;14.39;49.20;94464.63;4993154;28;20534;-70
2023/04/19 09:44:57;;;;;;;2.72;2.15;;;;;;;14.40;48.93;94462.81;4989377;28;20227;-70
2023/04/19 09:47:25;;;;;;;2.63;1.95;;;;;;;14.67;48.38;94470.00;5004537;28;20647;-69
2023/04/19 09:50:08;;;;;;;3.00;2.70;;;;;;;14.45;49.20;94463.88;4973254;28;20273;-70
2023/04/19 09:52:34;;;;;;;2.88;2.63;;;;;;;14.66;48.37;94449.03;4972283;28;20308;-70
2023/04/19 09:55:01;;;;;;;2.47;2.28;;;;;;;14.28;48.38;94450.09;4987735;28;20223;-70
2023/04/19 09:57:26;;;;;;;3.38;2.10;;;;;;;14.52;47.98;94443.63;5003003;28;20188;-69
2023/04/19 09:59:52;;;;;;;2.75;2.05;;;;;;;14.15;49.33;94441.22;5004853;28;20594;-69
2023/04/19 10:02:19;;;;;;;2.75;1.88;;;;;;;14.17;49.61;94439.19;4994887;28;20234;-70
2023/04/19 10:04:45;;;;;;;2.45;2.25;;;;;;;14.28;48.82;94433.41;4986191;28;20230;-69
2023/04/19 10:07:10;;;;;;;2.75;2.25;;;;;;;14.25;48.75;94423.22;4986187;28;20295;-70
2023/04/19 10:09:37;;;;;;;4.00;2.55;;;;;;;14.63;47.86;94436.19;4988526;28;20274;-70
2023/04/19 10:12:04;;;;;;;2.00;1.90;;;;;;;14.94;47.14;94438.44;4989404;28;20546;-70
2023/04/19 10:14:35;;;;;;;2.53;2.33;;;;;;;14.79;47.73;94425.34;4982133;28;20228;-70
2023/04/19 10:17:01;;;;;;;2.17;1.98;;;;;;;14.81;47.26;94425.97;4968901;28;20277;-70
2023/04/19 10:19:27;;;;;;;2.72;2.20;;;;;;;14.82;47.19;94427.59;4984328;28;20243;-67
2023/04/19 10:21:55;;;;;;;2.63;1.98;;;;;;;14.89;47.12;94428.47;4986141;28;20235;-67
2023/04/19 10:24:22;;;;;;;2.58;2.35;;;;;;;14.72;46.99;94435.84;4985372;28;20191;-68
2023/04/19 10:27:07;;;;;;;3.88;2.47;;;;;;;14.71;48.14;94426.28;4982049;28;20227;-69
2023/04/19 10:29:55;;;;;;;2.95;2.72;;;;;;;14.87;48.13;94422.53;4980978;28;20318;-68
2023/04/19 10:32:21;;;;;;;2.95;2.60;;;;;;;14.99;48.95;94420.16;5001574;28;20227;-69
2023/04/19 10:34:46;;;;;;;3.08;2.78;;;;;;;15.11;47.42;94420.47;4987316;28;20223;-69
2023/04/19 10:37:15;;;;;;;3.15;2.88;;;;;;;15.09;46.61;94428.59;4987640;28;20227;-69
2023/04/19 10:39:42;;;;;;;3.13;2.78;;;;;;;15.09;47.58;94428.59;4987052;28;20779;-68
2023/04/19 10:42:08;;;;;;;2.45;2.22;;;;;;;15.40;46.31;94419.41;4988438;28;20225;-69
2023/04/19 10:44:33;;;;;;;2.92;2.72;;;;;;;15.25;46.14;94422.16;4985091;28;20263;-72
2023/04/19 10:46:59;;;;;;;2.83;2.33;;;;;;;15.24;46.17;94414.44;4983635;28;20224;-71
2023/04/19 10:49:27;;;;;;;2.30;2.00;;;;;;;15.20;45.81;94408.69;4986733;28;20310;-71
2023/04/19 10:51:53;;;;;;;3.25;2.33;;;;;;;15.03;46.05;94408.19;4982460;28;20333;-70
2023/04/19 10:54:37;;;;;;;3.28;2.20;;;;;;;15.28;46.43;94400.59;4983795;28;20669;-71
2023/04/19 10:57:04;;;;;;;2.10;2.00;;;;;;;15.49;44.96;94394.38;4988162;28;20285;-71
2023/04/19 10:59:33;;;;;;;2.10;1.90;;;;;;;15.75;43.28;94401.66;4997905;28;20231;-71
2023/04/19 11:02:01;;;;;;;2.22;2.00;;;;;;;15.29;44.72;94404.03;4990519;28;20223;-71
2023/04/19 11:04:30;;;;;;;2.15;2.00;;;;;;;15.28;45.56;94403.25;4992623;28;20229;-69
2023/04/19 11:07:05;;;;;;;2.05;1.95;;;;;;;15.65;44.59;94398.53;4991229;28;20223;-70
2023/04/19 11:09:35;;;;;;;2.70;2.50;;;;;;;15.60;45.43;94393.00;4986846;28;20184;-70
2023/04/19 11:12:09;;;;;;;4.50;3.20;;;;;;;16.01;43.49;94392.97;4991230;28;20710;-70
2023/04/19 11:14:38;;;;;;;2.97;2.67;;;;;;;15.86;44.25;94384.34;5009134;28;20305;-70
2023/04/19 11:17:27;;;;;;;3.17;2.65;;;;;;;16.02;44.27;94383.19;5004819;28;20305;-70
2023/04/19 11:19:53;;;;;;;2.22;2.03;;;;;;;16.22;42.53;94405.22;4986641;28;20254;-70
2023/04/19 11:22:35;;;;;;;2.78;2.58;;;;;;;16.35;42.35;94385.88;4978039;28;20220;-70
2023/04/19 11:25:05;;;;;;;4.68;2.20;;;;;;;16.38;42.92;94389.97;5005548;28;20219;-70
2023/04/19 11:27:32;;;;;;;4.15;2.20;;;;;;;16.38;41.87;94387.31;4986269;28;20206;-71
2023/04/19 11:30:06;;;;;;;2.90;2.60;;;;;;;16.68;41.55;94388.56;4994418;28;20222;-70